sensor_id;sensor_type;location;lat;lon;timestamp;temperature;humidity
63219;DHT22;49320;52.512;13.448;2024-02-26T00:02:10;8.70;67.60
63219;DHT22;49320;52.512;13.448;2024-02-26T00:04:37;8.70;63.90
63219;DHT22;49320;52.512;13.448;2024-02-26T00:07:04;8.60;63.90
63219;DHT22;49320;52.512;13.448;2024-02-26T00:09:31;8.60;68.70
63219;DHT22;49320;52.512;13.448;2024-02-26T00:11:59;8.40;68.50
63219;DHT22;49320;52.512;13.448;2024-02-26T00:14:26;8.60;64.20
63219;DHT22;49320;52.512;13.448;2024-02-26T00:16:53;8.60;63.80
63219;DHT22;49320;52.512;13.448;2024-02-26T00:19:20;8.60;64.50
63219;DHT22;49320;52.512;13.448;2024-02-26T00:21:47;8.70;69.20
63219;DHT22;49320;52.512;13.448;2024-02-26T00:24:14;8.50;68.00
63219;DHT22;49320;52.512;13.448;2024-02-26T00:29:08;8.50;69.20
63219;DHT22;49320;52.512;13.448;2024-02-26T00:31:36;8.50;64.90
63219;DHT22;49320;52.512;13.448;2024-02-26T00:34:04;8.70;68.40
63219;DHT22;49320;52.512;13.448;2024-02-26T00:38:58;8.40;64.50
63219;DHT22;49320;52.512;13.448;2024-02-26T00:41:25;8.40;65.20
63219;DHT22;49320;52.512;13.448;2024-02-26T00:43:52;8.60;70.40
63219;DHT22;49320;52.512;13.448;2024-02-26T00:46:19;8.40;65.30
63219;DHT22;49320;52.512;13.448;2024-02-26T00:48:46;8.40;65.60
63219;DHT22;49320;52.512;13.448;2024-02-26T00:51:13;8.40;65.40
63219;DHT22;49320;52.512;13.448;2024-02-26T00:56:07;8.30;68.40
63219;DHT22;49320;52.512;13.448;2024-02-26T00:58:34;7.90;68.40
63219;DHT22;49320;52.512;13.448;2024-02-26T01:01:00;8.20;70.00
63219;DHT22;49320;52.512;13.448;2024-02-26T01:03:27;8.30;70.90
63219;DHT22;49320;52.512;13.448;2024-02-26T01:05:54;8.20;65.90
63219;DHT22;49320;52.512;13.448;2024-02-26T01:08:24;8.20;65.90
63219;DHT22;49320;52.512;13.448;2024-02-26T01:10:51;8.10;65.40
63219;DHT22;49320;52.512;13.448;2024-02-26T01:13:18;8.30;70.70
63219;DHT22;49320;52.512;13.448;2024-02-26T01:15:45;8.30;69.90
63219;DHT22;49320;52.512;13.448;2024-02-26T01:18:12;8.10;66.30
63219;DHT22;49320;52.512;13.448;2024-02-26T01:20:40;8.10;66.40
63219;DHT22;49320;52.512;13.448;2024-02-26T01:23:07;8.00;71.00
63219;DHT22;49320;52.512;13.448;2024-02-26T01:25:33;8.10;66.60
63219;DHT22;49320;52.512;13.448;2024-02-26T01:28:00;8.10;66.90
63219;DHT22;49320;52.512;13.448;2024-02-26T01:30:27;8.00;70.70
63219;DHT22;49320;52.512;13.448;2024-02-26T01:32:54;7.90;71.30
63219;DHT22;49320;52.512;13.448;2024-02-26T01:35:21;8.00;71.10
63219;DHT22;49320;52.512;13.448;2024-02-26T01:37:48;8.00;66.70
63219;DHT22;49320;52.512;13.448;2024-02-26T01:40:15;8.10;71.50
63219;DHT22;49320;52.512;13.448;2024-02-26T01:45:15;8.00;71.70
63219;DHT22;49320;52.512;13.448;2024-02-26T01:47:51;7.90;71.40
63219;DHT22;49320;52.512;13.448;2024-02-26T01:50:20;8.00;71.80
63219;DHT22;49320;52.512;13.448;2024-02-26T01:52:50;7.90;67.20
63219;DHT22;49320;52.512;13.448;2024-02-26T01:55:18;7.80;70.70
63219;DHT22;49320;52.512;13.448;2024-02-26T01:57:48;7.80;67.20
63219;DHT22;49320;52.512;13.448;2024-02-26T02:00:18;7.80;67.30
63219;DHT22;49320;52.512;13.448;2024-02-26T02:02:47;7.90;72.40
63219;DHT22;49320;52.512;13.448;2024-02-26T02:05:15;7.90;70.90
63219;DHT22;49320;52.512;13.448;2024-02-26T02:07:44;7.70;72.40
63219;DHT22;49320;52.512;13.448;2024-02-26T02:10:11;7.70;72.80
63219;DHT22;49320;52.512;13.448;2024-02-26T02:12:39;7.90;72.10
63219;DHT22;49320;52.512;13.448;2024-02-26T02:15:07;7.90;71.40
63219;DHT22;49320;52.512;13.448;2024-02-26T02:17:34;7.70;71.20
63219;DHT22;49320;52.512;13.448;2024-02-26T02:20:02;7.60;72.80
63219;DHT22;49320;52.512;13.448;2024-02-26T02:22:31;7.80;71.60
63219;DHT22;49320;52.512;13.448;2024-02-26T02:24:58;7.80;71.40
63219;DHT22;49320;52.512;13.448;2024-02-26T02:27:27;7.60;67.90
63219;DHT22;49320;52.512;13.448;2024-02-26T02:29:56;7.70;70.90
63219;DHT22;49320;52.512;13.448;2024-02-26T02:32:24;7.70;71.90
63219;DHT22;49320;52.512;13.448;2024-02-26T02:34:52;7.70;71.40
63219;DHT22;49320;52.512;13.448;2024-02-26T02:37:19;7.40;73.30
63219;DHT22;49320;52.512;13.448;2024-02-26T02:39:46;8.00;71.90
63219;DHT22;49320;52.512;13.448;2024-02-26T02:42:13;8.00;72.60
63219;DHT22;49320;52.512;13.448;2024-02-26T02:44:40;10.30;69.90
63219;DHT22;49320;52.512;13.448;2024-02-26T02:47:07;7.50;68.10
63219;DHT22;49320;52.512;13.448;2024-02-26T02:49:34;7.50;68.10
63219;DHT22;49320;52.512;13.448;2024-02-26T02:52:01;7.30;72.40
63219;DHT22;49320;52.512;13.448;2024-02-26T02:54:28;7.50;68.30
63219;DHT22;49320;52.512;13.448;2024-02-26T02:56:55;7.40;72.10
63219;DHT22;49320;52.512;13.448;2024-02-26T02:59:22;7.50;68.30
63219;DHT22;49320;52.512;13.448;2024-02-26T03:01:48;7.50;72.80
63219;DHT22;49320;52.512;13.448;2024-02-26T03:04:15;7.50;68.40
63219;DHT22;49320;52.512;13.448;2024-02-26T03:06:42;7.40;68.40
63219;DHT22;49320;52.512;13.448;2024-02-26T03:09:09;7.40;68.40
63219;DHT22;49320;52.512;13.448;2024-02-26T03:11:36;7.40;68.50
63219;DHT22;49320;52.512;13.448;2024-02-26T03:14:03;7.30;68.50
63219;DHT22;49320;52.512;13.448;2024-02-26T03:16:31;7.60;73.30
63219;DHT22;49320;52.512;13.448;2024-02-26T03:18:58;7.30;68.70
63219;DHT22;49320;52.512;13.448;2024-02-26T03:21:25;7.20;69.90
63219;DHT22;49320;52.512;13.448;2024-02-26T03:23:52;7.30;69.40
63219;DHT22;49320;52.512;13.448;2024-02-26T03:26:20;7.20;68.90
63219;DHT22;49320;52.512;13.448;2024-02-26T03:28:48;7.20;69.20
63219;DHT22;49320;52.512;13.448;2024-02-26T03:31:15;7.30;69.10
63219;DHT22;49320;52.512;13.448;2024-02-26T03:33:42;7.20;69.10
63219;DHT22;49320;52.512;13.448;2024-02-26T03:36:09;7.30;71.90
63219;DHT22;49320;52.512;13.448;2024-02-26T03:38:37;7.20;68.60
63219;DHT22;49320;52.512;13.448;2024-02-26T03:41:04;7.10;69.20
63219;DHT22;49320;52.512;13.448;2024-02-26T03:43:30;7.10;69.20
63219;DHT22;49320;52.512;13.448;2024-02-26T03:45:58;7.10;69.40
63219;DHT22;49320;52.512;13.448;2024-02-26T03:48:25;7.10;69.50
63219;DHT22;49320;52.512;13.448;2024-02-26T03:50:52;7.20;69.60
63219;DHT22;49320;52.512;13.448;2024-02-26T03:55:46;7.00;69.00
63219;DHT22;49320;52.512;13.448;2024-02-26T03:58:13;7.00;69.90
63219;DHT22;49320;52.512;13.448;2024-02-26T04:00:40;7.00;69.70
63219;DHT22;49320;52.512;13.448;2024-02-26T04:03:07;7.00;69.80
63219;DHT22;49320;52.512;13.448;2024-02-26T04:05:34;7.00;70.00
63219;DHT22;49320;52.512;13.448;2024-02-26T04:10:29;6.90;70.40
63219;DHT22;49320;52.512;13.448;2024-02-26T04:12:55;6.90;70.30
63219;DHT22;49320;52.512;13.448;2024-02-26T04:15:22;6.80;71.10
63219;DHT22;49320;52.512;13.448;2024-02-26T04:17:49;6.90;70.20
63219;DHT22;49320;52.512;13.448;2024-02-26T04:20:16;6.90;70.30
63219;DHT22;49320;52.512;13.448;2024-02-26T04:22:44;7.00;71.80
63219;DHT22;49320;52.512;13.448;2024-02-26T04:25:11;6.60;71.70
63219;DHT22;49320;52.512;13.448;2024-02-26T04:27:38;6.90;70.60
63219;DHT22;49320;52.512;13.448;2024-02-26T04:30:06;7.10;71.80
63219;DHT22;49320;52.512;13.448;2024-02-26T04:32:34;6.90;71.10
63219;DHT22;49320;52.512;13.448;2024-02-26T04:35:02;6.90;70.60
63219;DHT22;49320;52.512;13.448;2024-02-26T04:37:29;6.90;71.50
63219;DHT22;49320;52.512;13.448;2024-02-26T04:39:59;6.90;70.90
63219;DHT22;49320;52.512;13.448;2024-02-26T04:42:27;6.90;70.90
63219;DHT22;49320;52.512;13.448;2024-02-26T04:44:54;6.80;70.90
63219;DHT22;49320;52.512;13.448;2024-02-26T04:47:22;7.00;71.10
63219;DHT22;49320;52.512;13.448;2024-02-26T04:49:50;7.00;71.00
63219;DHT22;49320;52.512;13.448;2024-02-26T04:52:18;7.00;71.00
63219;DHT22;49320;52.512;13.448;2024-02-26T04:54:45;7.00;71.70
63219;DHT22;49320;52.512;13.448;2024-02-26T04:57:12;7.00;71.00
63219;DHT22;49320;52.512;13.448;2024-02-26T04:59:39;7.10;71.10
63219;DHT22;49320;52.512;13.448;2024-02-26T05:02:07;7.20;71.30
63219;DHT22;49320;52.512;13.448;2024-02-26T05:04:34;7.00;71.10
63219;DHT22;49320;52.512;13.448;2024-02-26T05:07:01;7.00;71.10
63219;DHT22;49320;52.512;13.448;2024-02-26T05:09:28;7.10;72.80
63219;DHT22;49320;52.512;13.448;2024-02-26T05:11:55;7.00;71.00
63219;DHT22;49320;52.512;13.448;2024-02-26T05:14:22;7.00;71.00
63219;DHT22;49320;52.512;13.448;2024-02-26T05:16:49;7.00;71.10
63219;DHT22;49320;52.512;13.448;2024-02-26T05:19:16;7.10;71.10
63219;DHT22;49320;52.512;13.448;2024-02-26T05:21:43;7.00;71.30
63219;DHT22;49320;52.512;13.448;2024-02-26T05:24:10;7.10;71.60
63219;DHT22;49320;52.512;13.448;2024-02-26T05:26:37;7.10;71.30
63219;DHT22;49320;52.512;13.448;2024-02-26T05:29:04;7.00;70.60
63219;DHT22;49320;52.512;13.448;2024-02-26T05:31:31;7.10;71.30
63219;DHT22;49320;52.512;13.448;2024-02-26T05:33:58;7.10;71.40
63219;DHT22;49320;52.512;13.448;2024-02-26T05:36:25;7.10;71.30
63219;DHT22;49320;52.512;13.448;2024-02-26T05:38:52;6.80;71.10
63219;DHT22;49320;52.512;13.448;2024-02-26T05:41:20;7.00;71.30
63219;DHT22;49320;52.512;13.448;2024-02-26T05:43:50;7.00;72.10
63219;DHT22;49320;52.512;13.448;2024-02-26T05:46:18;7.00;71.30
63219;DHT22;49320;52.512;13.448;2024-02-26T05:48:47;7.10;71.60
63219;DHT22;49320;52.512;13.448;2024-02-26T05:51:15;7.10;71.50
63219;DHT22;49320;52.512;13.448;2024-02-26T05:53:42;6.00;70.20
63219;DHT22;49320;52.512;13.448;2024-02-26T05:56:09;7.10;71.90
63219;DHT22;49320;52.512;13.448;2024-02-26T05:58:36;7.10;71.50
63219;DHT22;49320;52.512;13.448;2024-02-26T06:01:03;7.10;72.20
63219;DHT22;49320;52.512;13.448;2024-02-26T06:03:30;7.10;72.00
63219;DHT22;49320;52.512;13.448;2024-02-26T06:05:56;6.40;71.30
63219;DHT22;49320;52.512;13.448;2024-02-26T06:08:23;7.10;71.60
63219;DHT22;49320;52.512;13.448;2024-02-26T06:10:50;7.10;71.70
63219;DHT22;49320;52.512;13.448;2024-02-26T06:13:17;7.00;71.60
63219;DHT22;49320;52.512;13.448;2024-02-26T06:15:44;7.10;71.70
63219;DHT22;49320;52.512;13.448;2024-02-26T06:18:11;7.20;71.80
63219;DHT22;49320;52.512;13.448;2024-02-26T06:20:37;7.20;71.90
63219;DHT22;49320;52.512;13.448;2024-02-26T06:23:04;7.20;72.40
63219;DHT22;49320;52.512;13.448;2024-02-26T06:25:31;7.10;71.90
63219;DHT22;49320;52.512;13.448;2024-02-26T06:27:58;7.20;71.50
63219;DHT22;49320;52.512;13.448;2024-02-26T06:30:25;7.20;71.80
63219;DHT22;49320;52.512;13.448;2024-02-26T06:32:52;7.20;71.50
63219;DHT22;49320;52.512;13.448;2024-02-26T06:35:19;7.20;71.90
63219;DHT22;49320;52.512;13.448;2024-02-26T06:37:46;7.30;72.40
63219;DHT22;49320;52.512;13.448;2024-02-26T06:40:13;7.20;72.00
63219;DHT22;49320;52.512;13.448;2024-02-26T06:45:07;7.30;72.50
63219;DHT22;49320;52.512;13.448;2024-02-26T06:47:36;7.30;73.70
63219;DHT22;49320;52.512;13.448;2024-02-26T06:50:03;7.30;72.10
63219;DHT22;49320;52.512;13.448;2024-02-26T06:52:30;7.40;72.80
63219;DHT22;49320;52.512;13.448;2024-02-26T06:54:57;7.40;72.30
63219;DHT22;49320;52.512;13.448;2024-02-26T06:57:24;7.50;72.20
63219;DHT22;49320;52.512;13.448;2024-02-26T06:59:50;7.60;72.70
63219;DHT22;49320;52.512;13.448;2024-02-26T07:02:18;7.60;72.20
63219;DHT22;49320;52.512;13.448;2024-02-26T07:04:44;7.60;72.10
63219;DHT22;49320;52.512;13.448;2024-02-26T07:07:11;7.70;72.20
63219;DHT22;49320;52.512;13.448;2024-02-26T07:09:42;7.70;72.10
63219;DHT22;49320;52.512;13.448;2024-02-26T07:12:09;7.80;72.50
63219;DHT22;49320;52.512;13.448;2024-02-26T07:14:35;7.80;72.10
63219;DHT22;49320;52.512;13.448;2024-02-26T07:17:04;7.80;72.00
63219;DHT22;49320;52.512;13.448;2024-02-26T07:19:31;7.90;71.80
63219;DHT22;49320;52.512;13.448;2024-02-26T07:21:58;8.60;72.30
63219;DHT22;49320;52.512;13.448;2024-02-26T07:24:24;7.90;71.70
63219;DHT22;49320;52.512;13.448;2024-02-26T07:26:51;8.00;71.60
63219;DHT22;49320;52.512;13.448;2024-02-26T07:29:18;8.00;71.60
63219;DHT22;49320;52.512;13.448;2024-02-26T07:31:45;8.00;72.10
63219;DHT22;49320;52.512;13.448;2024-02-26T07:34:13;8.00;71.80
63219;DHT22;49320;52.512;13.448;2024-02-26T07:36:40;8.10;71.70
63219;DHT22;49320;52.512;13.448;2024-02-26T07:39:07;8.10;72.00
63219;DHT22;49320;52.512;13.448;2024-02-26T07:41:34;8.10;71.80
63219;DHT22;49320;52.512;13.448;2024-02-26T07:44:00;8.20;71.80
63219;DHT22;49320;52.512;13.448;2024-02-26T07:46:27;8.30;71.80
63219;DHT22;49320;52.512;13.448;2024-02-26T07:48:54;8.20;71.70
63219;DHT22;49320;52.512;13.448;2024-02-26T07:51:21;8.20;71.60
63219;DHT22;49320;52.512;13.448;2024-02-26T07:53:49;7.40;71.00
63219;DHT22;49320;52.512;13.448;2024-02-26T07:56:16;8.40;71.50
63219;DHT22;49320;52.512;13.448;2024-02-26T07:58:43;8.40;71.50
63219;DHT22;49320;52.512;13.448;2024-02-26T08:01:13;8.50;71.50
63219;DHT22;49320;52.512;13.448;2024-02-26T08:03:41;8.50;71.10
63219;DHT22;49320;52.512;13.448;2024-02-26T08:06:08;8.60;71.40
63219;DHT22;49320;52.512;13.448;2024-02-26T08:08:35;8.70;71.40
63219;DHT22;49320;52.512;13.448;2024-02-26T08:13:30;8.80;70.60
63219;DHT22;49320;52.512;13.448;2024-02-26T08:15:57;8.90;71.20
63219;DHT22;49320;52.512;13.448;2024-02-26T08:18:23;9.00;71.00
63219;DHT22;49320;52.512;13.448;2024-02-26T08:20:50;9.30;71.90
63219;DHT22;49320;52.512;13.448;2024-02-26T08:23:18;9.20;71.10
63219;DHT22;49320;52.512;13.448;2024-02-26T08:25:44;9.20;71.10
63219;DHT22;49320;52.512;13.448;2024-02-26T08:28:11;9.30;71.00
63219;DHT22;49320;52.512;13.448;2024-02-26T08:30:39;9.40;71.40
63219;DHT22;49320;52.512;13.448;2024-02-26T08:33:06;9.50;71.00
63219;DHT22;49320;52.512;13.448;2024-02-26T08:35:33;9.60;70.50
63219;DHT22;49320;52.512;13.448;2024-02-26T08:38:00;9.70;70.80
63219;DHT22;49320;52.512;13.448;2024-02-26T08:40:27;9.80;70.50
63219;DHT22;49320;52.512;13.448;2024-02-26T08:42:53;10.00;70.50
63219;DHT22;49320;52.512;13.448;2024-02-26T08:45:20;10.00;70.20
63219;DHT22;49320;52.512;13.448;2024-02-26T08:47:47;10.20;70.10
63219;DHT22;49320;52.512;13.448;2024-02-26T08:50:14;10.30;69.80
63219;DHT22;49320;52.512;13.448;2024-02-26T08:52:41;10.40;68.90
63219;DHT22;49320;52.512;13.448;2024-02-26T08:55:08;10.50;69.40
63219;DHT22;49320;52.512;13.448;2024-02-26T08:57:35;10.60;69.20
63219;DHT22;49320;52.512;13.448;2024-02-26T09:00:03;10.70;68.90
63219;DHT22;49320;52.512;13.448;2024-02-26T09:02:30;10.80;68.70
63219;DHT22;49320;52.512;13.448;2024-02-26T09:04:57;10.90;68.50
63219;DHT22;49320;52.512;13.448;2024-02-26T09:07:24;11.00;67.70
63219;DHT22;49320;52.512;13.448;2024-02-26T09:09:51;11.00;68.20
63219;DHT22;49320;52.512;13.448;2024-02-26T09:12:18;11.10;68.10
63219;DHT22;49320;52.512;13.448;2024-02-26T09:14:46;11.10;68.00
63219;DHT22;49320;52.512;13.448;2024-02-26T09:17:13;11.20;67.80
63219;DHT22;49320;52.512;13.448;2024-02-26T09:19:39;11.30;67.00
63219;DHT22;49320;52.512;13.448;2024-02-26T09:22:07;11.30;67.60
63219;DHT22;49320;52.512;13.448;2024-02-26T09:24:34;11.40;66.80
63219;DHT22;49320;52.512;13.448;2024-02-26T09:27:01;11.50;67.20
63219;DHT22;49320;52.512;13.448;2024-02-26T09:29:28;11.50;66.90
63219;DHT22;49320;52.512;13.448;2024-02-26T09:31:55;11.60;66.90
63219;DHT22;49320;52.512;13.448;2024-02-26T09:34:22;11.60;66.80
63219;DHT22;49320;52.512;13.448;2024-02-26T09:36:49;11.60;66.70
63219;DHT22;49320;52.512;13.448;2024-02-26T09:39:16;11.50;66.40
63219;DHT22;49320;52.512;13.448;2024-02-26T09:41:48;11.70;65.70
63219;DHT22;49320;52.512;13.448;2024-02-26T09:44:19;11.70;66.30
63219;DHT22;49320;52.512;13.448;2024-02-26T09:46:49;11.80;66.20
63219;DHT22;49320;52.512;13.448;2024-02-26T09:49:19;11.80;66.00
63219;DHT22;49320;52.512;13.448;2024-02-26T09:51:50;11.80;65.10
63219;DHT22;49320;52.512;13.448;2024-02-26T09:54:20;11.80;65.90
63219;DHT22;49320;52.512;13.448;2024-02-26T09:56:49;11.90;65.80
63219;DHT22;49320;52.512;13.448;2024-02-26T09:59:29;11.90;65.80
63219;DHT22;49320;52.512;13.448;2024-02-26T10:02:13;12.00;65.90
63219;DHT22;49320;52.512;13.448;2024-02-26T10:04:41;12.00;65.70
63219;DHT22;49320;52.512;13.448;2024-02-26T10:07:14;12.00;65.70
63219;DHT22;49320;52.512;13.448;2024-02-26T10:09:42;12.10;65.60
63219;DHT22;49320;52.512;13.448;2024-02-26T10:12:10;12.20;65.40
63219;DHT22;49320;52.512;13.448;2024-02-26T10:14:42;12.30;65.80
63219;DHT22;49320;52.512;13.448;2024-02-26T10:17:10;12.30;65.30
63219;DHT22;49320;52.512;13.448;2024-02-26T10:19:37;12.30;65.10
63219;DHT22;49320;52.512;13.448;2024-02-26T10:22:05;12.40;65.10
63219;DHT22;49320;52.512;13.448;2024-02-26T10:24:32;12.40;64.10
63219;DHT22;49320;52.512;13.448;2024-02-26T10:27:02;12.50;64.80
63219;DHT22;49320;52.512;13.448;2024-02-26T10:29:29;12.60;64.70
63219;DHT22;49320;52.512;13.448;2024-02-26T10:31:56;12.60;64.50
63219;DHT22;49320;52.512;13.448;2024-02-26T10:34:23;12.70;64.70
63219;DHT22;49320;52.512;13.448;2024-02-26T10:36:50;12.70;64.50
63219;DHT22;49320;52.512;13.448;2024-02-26T10:39:20;12.80;63.70
63219;DHT22;49320;52.512;13.448;2024-02-26T10:41:48;12.90;64.30
63219;DHT22;49320;52.512;13.448;2024-02-26T10:44:16;12.90;64.20
63219;DHT22;49320;52.512;13.448;2024-02-26T10:46:47;13.00;63.40
63219;DHT22;49320;52.512;13.448;2024-02-26T10:49:17;15.50;65.60
63219;DHT22;49320;52.512;13.448;2024-02-26T10:51:53;13.10;63.80
63219;DHT22;49320;52.512;13.448;2024-02-26T10:54:25;13.20;63.60
63219;DHT22;49320;52.512;13.448;2024-02-26T10:56:56;13.30;63.50
63219;DHT22;49320;52.512;13.448;2024-02-26T10:59:26;13.40;63.40
63219;DHT22;49320;52.512;13.448;2024-02-26T11:01:54;13.50;63.20
63219;DHT22;49320;52.512;13.448;2024-02-26T11:04:22;13.50;63.00
63219;DHT22;49320;52.512;13.448;2024-02-26T11:06:52;13.50;62.90
63219;DHT22;49320;52.512;13.448;2024-02-26T11:09:23;13.60;62.80
63219;DHT22;49320;52.512;13.448;2024-02-26T11:11:51;13.60;62.60
63219;DHT22;49320;52.512;13.448;2024-02-26T11:14:21;13.60;62.20
63219;DHT22;49320;52.512;13.448;2024-02-26T11:16:54;13.70;62.10
63219;DHT22;49320;52.512;13.448;2024-02-26T11:19:24;13.70;62.20
63219;DHT22;49320;52.512;13.448;2024-02-26T11:21:53;13.80;62.20
63219;DHT22;49320;52.512;13.448;2024-02-26T11:24:20;13.80;60.80
63219;DHT22;49320;52.512;13.448;2024-02-26T11:26:50;13.90;61.80
63219;DHT22;49320;52.512;13.448;2024-02-26T11:29:29;13.90;61.50
63219;DHT22;49320;52.512;13.448;2024-02-26T11:32:05;14.00;61.50
63219;DHT22;49320;52.512;13.448;2024-02-26T11:34:32;14.00;61.20
63219;DHT22;49320;52.512;13.448;2024-02-26T11:37:14;14.10;61.20
63219;DHT22;49320;52.512;13.448;2024-02-26T11:39:42;14.20;61.00
63219;DHT22;49320;52.512;13.448;2024-02-26T11:42:09;14.20;61.00
63219;DHT22;49320;52.512;13.448;2024-02-26T11:44:39;14.20;60.00
63219;DHT22;49320;52.512;13.448;2024-02-26T11:47:22;14.30;60.70
63219;DHT22;49320;52.512;13.448;2024-02-26T11:49:49;14.30;60.10
63219;DHT22;49320;52.512;13.448;2024-02-26T11:52:16;14.40;59.80
63219;DHT22;49320;52.512;13.448;2024-02-26T11:54:54;14.40;60.00
63219;DHT22;49320;52.512;13.448;2024-02-26T11:57:39;14.50;59.90
63219;DHT22;49320;52.512;13.448;2024-02-26T12:05:17;14.70;59.60
63219;DHT22;49320;52.512;13.448;2024-02-26T12:07:50;14.70;59.20
63219;DHT22;49320;52.512;13.448;2024-02-26T12:10:25;14.80;59.40
63219;DHT22;49320;52.512;13.448;2024-02-26T12:13:00;14.80;59.20
63219;DHT22;49320;52.512;13.448;2024-02-26T12:15:36;14.40;58.90
63219;DHT22;49320;52.512;13.448;2024-02-26T12:18:06;14.90;59.20
63219;DHT22;49320;52.512;13.448;2024-02-26T12:20:37;14.90;59.20
63219;DHT22;49320;52.512;13.448;2024-02-26T12:23:04;14.90;57.90
63219;DHT22;49320;52.512;13.448;2024-02-26T12:25:32;14.90;59.10
63219;DHT22;49320;52.512;13.448;2024-02-26T12:27:59;14.90;59.00
63219;DHT22;49320;52.512;13.448;2024-02-26T12:30:27;15.00;58.60
63219;DHT22;49320;52.512;13.448;2024-02-26T12:32:57;15.00;58.90
63219;DHT22;49320;52.512;13.448;2024-02-26T12:35:24;15.00;58.70
63219;DHT22;49320;52.512;13.448;2024-02-26T12:37:53;15.10;58.40
63219;DHT22;49320;52.512;13.448;2024-02-26T12:40:20;15.00;58.40
63219;DHT22;49320;52.512;13.448;2024-02-26T12:42:48;15.10;58.40
63219;DHT22;49320;52.512;13.448;2024-02-26T12:45:16;15.10;58.10
63219;DHT22;49320;52.512;13.448;2024-02-26T12:47:44;15.10;58.20
63219;DHT22;49320;52.512;13.448;2024-02-26T12:50:16;15.10;58.30
63219;DHT22;49320;52.512;13.448;2024-02-26T12:52:45;16.60;59.00
63219;DHT22;49320;52.512;13.448;2024-02-26T12:55:18;15.20;58.20
63219;DHT22;49320;52.512;13.448;2024-02-26T12:57:47;15.20;58.00
63219;DHT22;49320;52.512;13.448;2024-02-26T13:00:19;15.20;57.90
63219;DHT22;49320;52.512;13.448;2024-02-26T13:02:50;15.30;57.90
63219;DHT22;49320;52.512;13.448;2024-02-26T13:05:19;15.20;57.80
63219;DHT22;49320;52.512;13.448;2024-02-26T13:07:47;15.30;57.70
63219;DHT22;49320;52.512;13.448;2024-02-26T13:10:15;15.30;57.30
63219;DHT22;49320;52.512;13.448;2024-02-26T13:12:45;15.30;57.30
63219;DHT22;49320;52.512;13.448;2024-02-26T13:15:17;15.30;57.20
63219;DHT22;49320;52.512;13.448;2024-02-26T13:17:45;15.10;56.50
63219;DHT22;49320;52.512;13.448;2024-02-26T13:20:25;15.30;56.40
63219;DHT22;49320;52.512;13.448;2024-02-26T13:23:02;15.30;55.40
63219;DHT22;49320;52.512;13.448;2024-02-26T13:25:34;15.30;56.30
63219;DHT22;49320;52.512;13.448;2024-02-26T13:28:12;15.30;56.60
63219;DHT22;49320;52.512;13.448;2024-02-26T13:30:55;15.40;56.40
63219;DHT22;49320;52.512;13.448;2024-02-26T13:33:27;15.30;56.20
63219;DHT22;49320;52.512;13.448;2024-02-26T13:35:56;15.40;56.40
63219;DHT22;49320;52.512;13.448;2024-02-26T13:38:24;15.40;56.40
63219;DHT22;49320;52.512;13.448;2024-02-26T13:40:51;15.40;55.80
63219;DHT22;49320;52.512;13.448;2024-02-26T13:43:19;15.50;56.40
63219;DHT22;49320;52.512;13.448;2024-02-26T13:45:47;15.50;56.40
63219;DHT22;49320;52.512;13.448;2024-02-26T13:48:14;15.60;56.00
63219;DHT22;49320;52.512;13.448;2024-02-26T13:50:42;15.60;55.90
63219;DHT22;49320;52.512;13.448;2024-02-26T13:53:10;15.60;55.60
63219;DHT22;49320;52.512;13.448;2024-02-26T13:55:38;15.60;54.40
63219;DHT22;49320;52.512;13.448;2024-02-26T13:58:08;15.60;55.20
63219;DHT22;49320;52.512;13.448;2024-02-26T14:00:40;15.60;55.30
63219;DHT22;49320;52.512;13.448;2024-02-26T14:03:09;15.50;54.60
63219;DHT22;49320;52.512;13.448;2024-02-26T14:05:36;15.50;54.80
63219;DHT22;49320;52.512;13.448;2024-02-26T14:08:03;15.50;54.80
63219;DHT22;49320;52.512;13.448;2024-02-26T14:10:31;15.40;55.00
63219;DHT22;49320;52.512;13.448;2024-02-26T14:12:58;15.40;54.50
63219;DHT22;49320;52.512;13.448;2024-02-26T14:15:27;15.20;54.90
63219;DHT22;49320;52.512;13.448;2024-02-26T14:17:56;15.30;54.80
63219;DHT22;49320;52.512;13.448;2024-02-26T14:20:24;15.40;55.20
63219;DHT22;49320;52.512;13.448;2024-02-26T14:22:52;15.40;54.00
63219;DHT22;49320;52.512;13.448;2024-02-26T14:25:22;15.30;55.00
63219;DHT22;49320;52.512;13.448;2024-02-26T14:27:52;15.30;55.10
63219;DHT22;49320;52.512;13.448;2024-02-26T14:30:18;15.30;55.10
63219;DHT22;49320;52.512;13.448;2024-02-26T14:32:45;15.30;55.20
63219;DHT22;49320;52.512;13.448;2024-02-26T14:35:13;15.30;55.00
63219;DHT22;49320;52.512;13.448;2024-02-26T14:37:44;15.30;55.10
63219;DHT22;49320;52.512;13.448;2024-02-26T14:40:14;15.30;55.10
63219;DHT22;49320;52.512;13.448;2024-02-26T14:42:41;15.20;54.90
63219;DHT22;49320;52.512;13.448;2024-02-26T14:45:08;15.20;55.20
63219;DHT22;49320;52.512;13.448;2024-02-26T14:47:35;15.20;54.90
63219;DHT22;49320;52.512;13.448;2024-02-26T14:50:03;15.20;55.00
63219;DHT22;49320;52.512;13.448;2024-02-26T14:52:31;15.20;55.10
63219;DHT22;49320;52.512;13.448;2024-02-26T14:54:58;15.20;54.40
63219;DHT22;49320;52.512;13.448;2024-02-26T14:57:25;14.40;54.50
63219;DHT22;49320;52.512;13.448;2024-02-26T14:59:52;15.10;55.10
63219;DHT22;49320;52.512;13.448;2024-02-26T15:02:19;15.10;55.10
63219;DHT22;49320;52.512;13.448;2024-02-26T15:04:45;15.00;55.10
63219;DHT22;49320;52.512;13.448;2024-02-26T15:07:13;15.00;55.10
63219;DHT22;49320;52.512;13.448;2024-02-26T15:09:42;15.00;55.10
63219;DHT22;49320;52.512;13.448;2024-02-26T15:12:10;15.00;55.10
63219;DHT22;49320;52.512;13.448;2024-02-26T15:14:37;14.90;55.30
63219;DHT22;49320;52.512;13.448;2024-02-26T15:17:05;15.00;55.50
63219;DHT22;49320;52.512;13.448;2024-02-26T15:19:37;14.90;55.00
63219;DHT22;49320;52.512;13.448;2024-02-26T15:22:04;14.80;55.10
63219;DHT22;49320;52.512;13.448;2024-02-26T15:24:31;14.80;55.30
63219;DHT22;49320;52.512;13.448;2024-02-26T15:26:58;14.80;55.40
63219;DHT22;49320;52.512;13.448;2024-02-26T15:29:25;14.80;55.50
63219;DHT22;49320;52.512;13.448;2024-02-26T15:31:52;14.50;55.30
63219;DHT22;49320;52.512;13.448;2024-02-26T15:34:19;14.70;54.60
63219;DHT22;49320;52.512;13.448;2024-02-26T15:36:46;14.60;55.50
63219;DHT22;49320;52.512;13.448;2024-02-26T15:39:13;14.60;55.60
63219;DHT22;49320;52.512;13.448;2024-02-26T15:41:40;14.60;55.60
63219;DHT22;49320;52.512;13.448;2024-02-26T15:44:07;14.60;55.60
63219;DHT22;49320;52.512;13.448;2024-02-26T15:46:39;14.50;55.70
63219;DHT22;49320;52.512;13.448;2024-02-26T15:49:09;14.50;55.20
63219;DHT22;49320;52.512;13.448;2024-02-26T15:51:41;14.40;55.70
63219;DHT22;49320;52.512;13.448;2024-02-26T15:54:09;14.40;55.90
63219;DHT22;49320;52.512;13.448;2024-02-26T15:56:35;14.20;55.30